createdAt,value
2023-02-24T00:00:39.626Z,5.40
2023-02-24T00:03:14.147Z,5.40
2023-02-24T00:05:55.745Z,5.40
2023-02-24T00:08:36.041Z,5.40
2023-02-24T00:11:20.137Z,5.40
2023-02-24T00:13:55.165Z,5.40
2023-02-24T00:16:30.152Z,5.40
2023-02-24T00:19:05.592Z,5.30
2023-02-24T00:21:37.766Z,5.30
2023-02-24T00:24:11.661Z,5.30
2023-02-24T00:26:47.167Z,5.20
2023-02-24T00:29:21.325Z,5.20
2023-02-24T00:32:08.339Z,5.10
2023-02-24T00:34:40.906Z,5.00
2023-02-24T00:37:15.878Z,4.90
2023-02-24T00:39:46.982Z,5.00
2023-02-24T00:42:16.509Z,4.90
2023-02-24T00:44:48.365Z,4.90
2023-02-24T00:47:19.566Z,4.80
2023-02-24T00:49:51.201Z,4.80
2023-02-24T00:52:28.767Z,4.70
2023-02-24T00:55:18.225Z,4.70
2023-02-24T00:57:56.526Z,4.70
2023-02-24T01:00:52.990Z,4.60
2023-02-24T01:03:33.999Z,4.50
2023-02-24T01:06:09.918Z,4.50
2023-02-24T01:08:49.610Z,4.40
2023-02-24T01:11:51.137Z,4.40
2023-02-24T01:14:35.316Z,4.40
2023-02-24T01:17:11.846Z,4.30
2023-02-24T01:19:48.053Z,4.30
2023-02-24T01:22:23.997Z,4.30
2023-02-24T01:24:58.595Z,4.30
2023-02-24T01:27:33.573Z,4.30
2023-02-24T01:30:17.087Z,4.30
2023-02-24T01:32:51.183Z,4.40
2023-02-24T01:35:29.106Z,4.40
2023-02-24T01:38:06.902Z,4.40
2023-02-24T01:40:37.156Z,4.50
2023-02-24T01:43:12.913Z,4.50
2023-02-24T01:45:45.594Z,4.50
2023-02-24T01:51:34.469Z,4.50
2023-02-24T01:54:27.882Z,4.50
2023-02-24T01:57:08.338Z,4.50
2023-02-24T01:59:45.698Z,4.50
2023-02-24T02:02:27.692Z,4.50
2023-02-24T02:05:17.232Z,4.50
2023-02-24T02:07:51.288Z,4.50
2023-02-24T02:10:28.405Z,4.50
2023-02-24T02:13:11.096Z,4.50
2023-02-24T02:16:28.241Z,4.50
2023-02-24T02:19:40.405Z,4.50
2023-02-24T02:22:51.983Z,4.60
2023-02-24T02:26:13.384Z,4.60
2023-02-24T02:33:21.551Z,4.50
2023-02-24T02:36:51.067Z,4.50
2023-02-24T02:43:42.577Z,4.50
2023-02-24T02:46:36.609Z,4.40
2023-02-24T02:49:30.583Z,4.30
2023-02-24T02:53:30.799Z,4.30
2023-02-24T02:56:17.074Z,4.30
2023-02-24T02:59:49.169Z,4.30
2023-02-24T03:03:01.041Z,4.20
2023-02-24T03:05:47.366Z,4.20
2023-02-24T03:08:31.004Z,4.20
2023-02-24T03:11:15.907Z,4.20
2023-02-24T03:20:52.050Z,4.10
2023-02-24T03:23:30.182Z,4.00
2023-02-24T03:26:18.114Z,4.00
2023-02-24T03:29:14.024Z,4.00
2023-02-24T03:31:52.167Z,4.00
2023-02-24T03:34:38.241Z,3.90
2023-02-24T03:37:09.617Z,3.90
2023-02-24T03:39:39.686Z,3.80
2023-02-24T03:42:20.440Z,3.80
2023-02-24T03:44:50.095Z,3.70
2023-02-24T03:47:20.523Z,3.70
2023-02-24T03:49:50.347Z,3.70
2023-02-24T03:53:14.426Z,3.60
2023-02-24T03:55:58.700Z,3.60
2023-02-24T03:59:13.112Z,3.60
2023-02-24T04:02:08.380Z,3.70
2023-02-24T04:04:58.932Z,3.70
2023-02-24T04:07:53.129Z,3.70
2023-02-24T04:10:52.646Z,3.80
2023-02-24T04:13:55.230Z,3.80
2023-02-24T04:17:01.301Z,3.80
2023-02-24T04:19:38.462Z,3.90
2023-02-24T04:22:10.822Z,3.90
2023-02-24T04:24:41.831Z,3.90
2023-02-24T04:27:14.808Z,3.90
2023-02-24T04:29:53.674Z,3.90
2023-02-24T04:32:29.602Z,3.90
2023-02-24T04:35:12.486Z,3.90
2023-02-24T04:37:45.910Z,3.90
2023-02-24T04:40:22.248Z,3.90
2023-02-24T04:42:54.957Z,4.00
2023-02-24T04:45:28.230Z,4.00
2023-02-24T04:48:02.995Z,4.00
2023-02-24T04:50:36.901Z,4.00
2023-02-24T04:53:15.600Z,4.00
2023-02-24T04:55:49.994Z,3.90
2023-02-24T04:58:28.053Z,3.90
2023-02-24T05:00:56.118Z,3.90
2023-02-24T05:03:30.022Z,3.90
2023-02-24T05:06:00.389Z,3.90
2023-02-24T05:08:31.217Z,3.90
2023-02-24T05:11:00.595Z,3.90
2023-02-24T05:13:31.742Z,3.90
2023-02-24T05:16:08.432Z,4.00
2023-02-24T05:18:37.385Z,4.00
2023-02-24T05:21:33.451Z,4.00
2023-02-24T05:24:06.753Z,4.00
2023-02-24T05:26:37.257Z,4.00
2023-02-24T05:29:06.942Z,4.00
2023-02-24T05:31:34.961Z,4.00
2023-02-24T05:34:08.271Z,4.00
2023-02-24T05:36:40.960Z,4.00
2023-02-24T05:39:12.717Z,4.00
2023-02-24T05:41:43.577Z,4.00
2023-02-24T05:44:24.032Z,4.00
2023-02-24T05:47:06.938Z,4.00
2023-02-24T05:49:44.499Z,4.00
2023-02-24T05:52:17.158Z,4.10
2023-02-24T05:54:48.258Z,4.10
2023-02-24T05:57:25.077Z,4.10
2023-02-24T05:59:53.246Z,4.00
2023-02-24T06:02:37.282Z,4.00
2023-02-24T06:05:08.921Z,4.00
2023-02-24T06:07:36.245Z,4.00
2023-02-24T06:10:09.610Z,4.00
2023-02-24T06:12:39.891Z,3.90
2023-02-24T06:15:08.274Z,3.90
2023-02-24T06:17:35.456Z,3.90
2023-02-24T06:20:13.064Z,3.90
2023-02-24T06:22:42.372Z,3.90
2023-02-24T06:25:14.002Z,3.90
2023-02-24T06:27:40.878Z,3.90
2023-02-24T06:30:10.313Z,3.90
2023-02-24T06:32:37.393Z,3.90
2023-02-24T06:35:04.878Z,3.90
2023-02-24T06:37:31.802Z,3.90
2023-02-24T06:39:58.632Z,3.90
2023-02-24T06:42:25.689Z,3.90
2023-02-24T06:44:52.666Z,3.90
2023-02-24T06:47:19.622Z,3.90
2023-02-24T06:49:47.890Z,3.90
2023-02-24T06:52:18.903Z,4.00
2023-02-24T06:54:49.526Z,3.90
2023-02-24T06:57:16.854Z,4.00
2023-02-24T06:59:43.877Z,3.90
2023-02-24T07:02:10.973Z,3.90
2023-02-24T07:04:43.811Z,4.00
2023-02-24T07:07:14.120Z,4.00
2023-02-24T07:09:45.360Z,4.00
2023-02-24T07:12:14.468Z,4.00
2023-02-24T07:14:41.388Z,4.00
2023-02-24T07:17:08.772Z,4.00
2023-02-24T07:19:36.901Z,4.00
2023-02-24T07:22:04.470Z,4.10
2023-02-24T07:24:36.541Z,4.10
2023-02-24T07:27:22.464Z,4.10
2023-02-24T07:29:53.282Z,4.20
2023-02-24T07:32:25.383Z,4.20
2023-02-24T07:34:52.893Z,4.20
2023-02-24T07:37:20.602Z,4.20
2023-02-24T07:39:47.724Z,4.30
2023-02-24T07:42:14.855Z,4.30
2023-02-24T07:44:46.651Z,4.30
2023-02-24T07:47:15.721Z,4.30
2023-02-24T07:49:42.992Z,4.30
2023-02-24T07:52:11.659Z,4.30
2023-02-24T07:54:39.397Z,4.40
2023-02-24T07:57:13.138Z,4.40
2023-02-24T07:59:40.253Z,4.40
2023-02-24T08:02:11.387Z,4.40
2023-02-24T08:04:41.128Z,4.50
2023-02-24T08:07:14.236Z,4.50
2023-02-24T08:09:45.225Z,4.50
2023-02-24T08:12:21.294Z,4.60
2023-02-24T08:14:53.266Z,4.60
2023-02-24T08:17:26.462Z,4.60
2023-02-24T08:20:16.033Z,4.60
2023-02-24T08:22:47.132Z,4.60
2023-02-24T08:25:19.688Z,4.60
2023-02-24T08:28:07.444Z,4.70
2023-02-24T08:30:44.811Z,4.70
2023-02-24T08:33:19.371Z,4.70
2023-02-24T08:35:52.392Z,4.70
2023-02-24T08:38:25.882Z,4.70
2023-02-24T08:40:55.549Z,4.80
2023-02-24T08:43:32.675Z,4.80
2023-02-24T08:46:03.536Z,4.80
2023-02-24T08:48:55.558Z,4.80
2023-02-24T08:51:35.757Z,4.90
2023-02-24T08:54:15.253Z,4.90
2023-02-24T08:56:55.882Z,4.90
2023-02-24T08:59:37.357Z,4.90
2023-02-24T09:02:31.328Z,5.00
2023-02-24T09:05:13.143Z,5.00
2023-02-24T09:07:42.561Z,5.00
2023-02-24T09:10:18.556Z,5.10
2023-02-24T09:12:45.957Z,5.10
2023-02-24T09:15:17.107Z,5.10
2023-02-24T09:17:45.656Z,5.20
2023-02-24T09:20:41.749Z,5.10
2023-02-24T09:23:19.884Z,5.20
2023-02-24T09:25:50.758Z,5.20
2023-02-24T09:28:25.657Z,5.20
2023-02-24T09:30:58.506Z,5.20
2023-02-24T09:33:38.930Z,5.20
2023-02-24T09:36:13.118Z,5.30
2023-02-24T09:38:59.894Z,5.30
2023-02-24T09:41:33.184Z,5.30
2023-02-24T09:44:18.375Z,5.40
2023-02-24T09:47:08.790Z,5.40
2023-02-24T09:49:47.760Z,5.40
2023-02-24T09:52:18.695Z,5.40
2023-02-24T09:55:12.141Z,5.40
2023-02-24T09:58:09.571Z,5.30
2023-02-24T10:00:44.272Z,5.40
2023-02-24T10:03:30.012Z,5.40
2023-02-24T10:06:12.252Z,5.40
2023-02-24T10:08:49.688Z,5.40
2023-02-24T10:11:32.634Z,5.30
2023-02-24T10:14:07.022Z,5.30
2023-02-24T10:16:44.344Z,5.30
2023-02-24T10:19:27.368Z,5.30
2023-02-24T10:22:27.512Z,5.30
2023-02-24T10:25:22.765Z,5.30
2023-02-24T10:28:04.658Z,5.30
2023-02-24T10:31:11.023Z,5.30
2023-02-24T10:33:45.532Z,5.30
2023-02-24T10:36:18.772Z,5.30
2023-02-24T10:38:46.933Z,5.30
2023-02-24T10:41:16.086Z,5.30
2023-02-24T10:43:56.146Z,5.30
2023-02-24T10:46:41.689Z,5.30
2023-02-24T10:49:17.212Z,5.30
2023-02-24T10:51:52.803Z,5.30
2023-02-24T10:54:44.943Z,5.30
2023-02-24T10:57:37.325Z,5.30
2023-02-24T11:00:31.051Z,5.30
2023-02-24T11:03:08.313Z,5.20
2023-02-24T11:06:04.978Z,5.10
2023-02-24T11:08:36.964Z,5.00
2023-02-24T11:11:51.395Z,5.00
2023-02-24T11:14:37.382Z,4.90
2023-02-24T11:17:16.210Z,4.90
2023-02-24T11:19:59.008Z,4.80
2023-02-24T11:22:39.481Z,4.80
2023-02-24T11:25:36.113Z,4.90
2023-02-24T11:28:04.684Z,4.90
2023-02-24T11:31:09.452Z,4.90
2023-02-24T11:34:10.332Z,4.90
2023-02-24T11:37:25.389Z,4.80
2023-02-24T11:39:55.031Z,4.80
2023-02-24T11:42:46.080Z,4.80
2023-02-24T11:45:40.475Z,4.80
2023-02-24T11:48:21.348Z,4.90
2023-02-24T11:50:56.556Z,4.90
2023-02-24T11:53:50.682Z,4.80
2023-02-24T11:56:24.778Z,4.80
2023-02-24T11:59:38.329Z,4.80
2023-02-24T12:02:35.496Z,4.80
2023-02-24T12:05:22.421Z,4.80
2023-02-24T12:07:56.321Z,4.90
2023-02-24T12:10:30.857Z,4.80
2023-02-24T12:13:31.211Z,4.90
2023-02-24T12:16:23.706Z,4.80
2023-02-24T12:19:04.357Z,4.80
2023-02-24T12:21:39.655Z,4.80
2023-02-24T12:24:13.745Z,4.80
2023-02-24T12:27:26.058Z,4.80
2023-02-24T12:30:23.005Z,4.80
2023-02-24T12:33:24.883Z,4.80
2023-02-24T12:36:32.715Z,4.80
2023-02-24T12:39:22.031Z,4.80
2023-02-24T12:42:07.459Z,4.80
2023-02-24T12:44:41.560Z,4.80
2023-02-24T12:47:25.941Z,4.80
2023-02-24T12:50:09.881Z,4.80
2023-02-24T12:52:53.487Z,4.80
2023-02-24T12:55:55.495Z,4.80
2023-02-24T12:58:30.782Z,4.80
2023-02-24T13:01:06.914Z,4.80
2023-02-24T13:04:05.977Z,4.90
2023-02-24T13:06:55.813Z,4.80
2023-02-24T13:09:47.378Z,4.80
2023-02-24T13:12:32.455Z,4.90
2023-02-24T13:14:59.911Z,4.90
2023-02-24T13:17:31.481Z,4.90
2023-02-24T13:20:11.849Z,4.90
2023-02-24T13:22:43.549Z,4.90
2023-02-24T13:25:39.426Z,4.90
2023-02-24T13:28:21.575Z,5.00
2023-02-24T13:31:11.314Z,5.00
2023-02-24T13:33:44.264Z,5.00
2023-02-24T13:36:22.768Z,5.00
2023-02-24T13:39:03.650Z,5.10
2023-02-24T13:41:33.581Z,5.10
2023-02-24T13:44:21.190Z,5.10
2023-02-24T13:47:12.939Z,5.10
2023-02-24T13:50:08.510Z,5.20
2023-02-24T13:53:16.791Z,5.20
2023-02-24T13:55:58.627Z,5.20
2023-02-24T13:58:58.161Z,5.20
2023-02-24T14:01:31.429Z,5.20
2023-02-24T14:04:52.261Z,5.20
2023-02-24T14:07:29.208Z,5.20
2023-02-24T14:10:06.300Z,5.20
2023-02-24T14:12:35.731Z,5.30
2023-02-24T14:15:05.140Z,5.20
2023-02-24T14:17:36.291Z,5.30
2023-02-24T14:20:09.258Z,5.30
2023-02-24T14:22:45.941Z,5.40
2023-02-24T14:25:15.638Z,5.40
2023-02-24T14:27:50.235Z,5.50
2023-02-24T14:30:34.294Z,5.50
2023-02-24T14:33:05.321Z,5.60
2023-02-24T14:35:52.859Z,5.60
2023-02-24T14:38:33.683Z,5.70
2023-02-24T14:41:02.288Z,5.80
2023-02-24T14:43:29.603Z,5.80
2023-02-24T14:45:59.722Z,5.90
2023-02-24T14:48:29.097Z,6.00
2023-02-24T14:51:12.760Z,6.10
2023-02-24T14:53:52.465Z,6.10
2023-02-24T14:56:23.894Z,6.10
2023-02-24T14:59:02.992Z,6.10
2023-02-24T15:01:49.306Z,6.10
2023-02-24T15:04:28.184Z,6.10
2023-02-24T15:06:55.124Z,6.10
2023-02-24T15:09:42.979Z,6.20
2023-02-24T15:12:43.109Z,6.20
2023-02-24T15:15:26.902Z,6.20
2023-02-24T15:18:04.350Z,6.20
2023-02-24T15:20:39.533Z,6.20
2023-02-24T15:23:32.640Z,6.20
2023-02-24T15:26:00.563Z,6.20
2023-02-24T15:28:33.382Z,6.20
2023-02-24T15:31:18.745Z,6.30
2023-02-24T15:33:57.864Z,6.30
2023-02-24T15:36:30.931Z,6.30
2023-02-24T15:39:18.282Z,6.30
2023-02-24T15:41:47.970Z,6.30
2023-02-24T15:44:32.480Z,6.30
2023-02-24T15:47:21.120Z,6.30
2023-02-24T15:49:47.960Z,6.30
2023-02-24T15:52:17.446Z,6.30
2023-02-24T15:54:44.393Z,6.30
2023-02-24T15:57:16.615Z,6.30
2023-02-24T15:59:46.335Z,6.30
2023-02-24T16:02:22.250Z,6.30
2023-02-24T16:04:51.549Z,6.30
2023-02-24T16:07:30.602Z,6.30
2023-02-24T16:10:00.797Z,6.30
2023-02-24T16:12:32.922Z,6.30
2023-02-24T16:15:02.344Z,6.30
2023-02-24T16:17:40.836Z,6.30
2023-02-24T16:20:18.565Z,6.30
2023-02-24T16:22:48.521Z,6.30
2023-02-24T16:25:17.160Z,6.30
2023-02-24T16:27:44.235Z,6.30
2023-02-24T16:30:22.142Z,6.30
2023-02-24T16:32:49.810Z,6.30
2023-02-24T16:35:18.214Z,6.20
2023-02-24T16:37:47.727Z,6.20
2023-02-24T16:40:27.859Z,6.10
2023-02-24T16:42:54.788Z,6.10
2023-02-24T16:45:26.372Z,6.10
2023-02-24T16:47:55.904Z,6.10
2023-02-24T16:50:34.761Z,6.00
2023-02-24T16:53:02.193Z,5.90
2023-02-24T16:55:29.135Z,5.90
2023-02-24T16:57:56.199Z,5.90
2023-02-24T17:00:24.410Z,5.80
2023-02-24T17:02:52.931Z,5.80
2023-02-24T17:05:27.997Z,5.80
2023-02-24T17:07:57.447Z,5.80
2023-02-24T17:10:25.594Z,5.80
2023-02-24T17:12:52.879Z,5.70
2023-02-24T17:15:23.318Z,5.70
2023-02-24T17:17:51.119Z,5.70
2023-02-24T17:20:20.505Z,5.80
2023-02-24T17:22:47.615Z,5.70
2023-02-24T17:25:19.835Z,5.70
2023-02-24T17:27:46.865Z,5.70
2023-02-24T17:30:28.036Z,5.70
2023-02-24T17:32:58.405Z,5.60
2023-02-24T17:35:26.126Z,5.60
2023-02-24T17:37:53.697Z,5.60
2023-02-24T17:40:21.370Z,5.60
2023-02-24T17:42:51.416Z,5.60
2023-02-24T17:45:19.835Z,5.60
2023-02-24T17:47:54.286Z,5.60
2023-02-24T17:50:24.480Z,5.60
2023-02-24T17:52:52.616Z,5.60
2023-02-24T17:55:34.196Z,5.60
2023-02-24T17:58:18.953Z,5.60
2023-02-24T18:00:49.995Z,5.60
2023-02-24T18:03:36.686Z,5.60
2023-02-24T18:18:32.700Z,5.70
2023-02-24T18:45:00.301Z,5.40
2023-02-24T18:51:25.069Z,5.30
2023-02-24T18:54:13.639Z,5.30
2023-02-24T18:57:09.953Z,5.30
2023-02-24T19:00:35.245Z,5.40
2023-02-24T19:10:06.536Z,5.30
2023-02-24T19:12:48.988Z,5.30
2023-02-24T19:15:52.789Z,5.30
2023-02-24T19:18:44.018Z,5.30
2023-02-24T19:21:16.102Z,5.30
2023-02-24T19:23:44.779Z,5.40
2023-02-24T19:26:24.988Z,5.40
2023-02-24T19:28:54.774Z,5.40
2023-02-24T19:31:28.944Z,5.30
2023-02-24T19:34:00.824Z,5.30
2023-02-24T19:36:31.904Z,5.40
2023-02-24T19:38:59.552Z,5.30
2023-02-24T19:41:27.613Z,5.30
2023-02-24T19:43:55.246Z,5.30
2023-02-24T19:46:28.569Z,5.20
2023-02-24T19:48:59.572Z,5.20
2023-02-24T19:51:26.972Z,5.10
2023-02-24T19:53:57.243Z,5.10
2023-02-24T19:56:33.643Z,5.00
2023-02-24T19:59:03.490Z,5.00
2023-02-24T20:01:31.943Z,5.00
2023-02-24T20:08:37.844Z,4.90
2023-02-24T20:11:09.681Z,4.90
2023-02-24T20:13:40.064Z,4.90
2023-02-24T20:16:14.655Z,4.80
2023-02-24T20:18:43.863Z,4.80
2023-02-24T20:21:12.876Z,4.80
2023-02-24T20:23:41.223Z,4.80
2023-02-24T20:26:14.129Z,4.80
2023-02-24T20:28:42.438Z,4.80
2023-02-24T20:31:15.645Z,4.80
2023-02-24T20:33:44.335Z,4.80
2023-02-24T20:36:21.373Z,4.80
2023-02-24T20:38:50.442Z,4.70
2023-02-24T20:41:20.826Z,4.70
2023-02-24T20:43:49.423Z,4.60
2023-02-24T20:46:27.402Z,4.60
2023-02-24T20:49:14.990Z,4.50
2023-02-24T20:51:45.079Z,4.50
2023-02-24T20:54:15.024Z,4.50
2023-02-24T20:56:45.274Z,4.40
2023-02-24T20:59:22.394Z,4.40
2023-02-24T21:01:51.759Z,4.30
2023-02-24T21:04:21.819Z,4.30
2023-02-24T21:06:51.978Z,4.30
2023-02-24T21:09:19.276Z,4.20
2023-02-24T21:11:46.680Z,4.20
2023-02-24T21:14:17.789Z,4.20
2023-02-24T21:16:48.081Z,4.20
2023-02-24T21:19:21.396Z,4.20
2023-02-24T21:21:48.648Z,4.20
2023-02-24T21:24:16.692Z,4.20
2023-02-24T21:26:43.975Z,4.20
2023-02-24T21:29:11.375Z,4.20
2023-02-24T21:31:38.781Z,4.20
2023-02-24T21:34:20.720Z,4.20
2023-02-24T21:36:48.164Z,4.20
2023-02-24T21:39:17.745Z,4.20
2023-02-24T21:41:45.130Z,4.20
2023-02-24T21:44:14.873Z,4.20
2023-02-24T21:46:45.689Z,4.20
2023-02-24T21:49:14.347Z,4.30
2023-02-24T21:51:42.276Z,4.30
2023-02-24T21:54:09.500Z,4.30
2023-02-24T21:56:36.711Z,4.30
2023-02-24T21:59:08.959Z,4.30
2023-02-24T22:01:42.614Z,4.30
2023-02-24T22:04:15.202Z,4.40
2023-02-24T22:06:44.637Z,4.30
2023-02-24T22:09:23.539Z,4.30
2023-02-24T22:11:50.643Z,4.40
2023-02-24T22:14:18.055Z,4.40
2023-02-24T22:16:45.257Z,4.40
2023-02-24T22:19:12.801Z,4.40
2023-02-24T22:21:42.443Z,4.40
2023-02-24T22:24:15.325Z,4.30
2023-02-24T22:26:43.563Z,4.40
2023-02-24T22:29:11.529Z,4.30
2023-02-24T22:31:43.532Z,4.30
2023-02-24T22:34:11.095Z,4.30
2023-02-24T22:36:38.240Z,4.30
2023-02-24T22:39:06.723Z,4.30
2023-02-24T22:41:35.810Z,4.30
2023-02-24T22:44:05.427Z,4.20
2023-02-24T22:46:38.245Z,4.20
2023-02-24T22:49:06.135Z,4.20
2023-02-24T22:51:33.230Z,4.20
2023-02-24T22:54:00.111Z,4.20
2023-02-24T22:56:29.091Z,4.30
2023-02-24T22:58:58.102Z,4.30
2023-02-24T23:01:32.826Z,4.30
2023-02-24T23:04:37.864Z,4.20
2023-02-24T23:07:08.189Z,4.30
2023-02-24T23:09:35.022Z,4.30
2023-02-24T23:12:02.078Z,4.30
2023-02-24T23:14:30.453Z,4.30
2023-02-24T23:16:58.761Z,4.40
2023-02-24T23:19:25.896Z,4.30
2023-02-24T23:21:54.263Z,4.40
2023-02-24T23:24:22.132Z,4.40
2023-02-24T23:26:53.936Z,4.40
2023-02-24T23:29:23.692Z,4.40
2023-02-24T23:31:52.243Z,4.40
2023-02-24T23:34:19.467Z,4.40
2023-02-24T23:36:47.890Z,4.40
2023-02-24T23:39:20.460Z,4.40
2023-02-24T23:41:47.753Z,4.40
2023-02-24T23:44:14.738Z,4.40
2023-02-24T23:46:41.880Z,4.40
2023-02-24T23:49:09.002Z,4.40
2023-02-24T23:51:47.679Z,4.40
2023-02-24T23:54:20.329Z,4.40
2023-02-24T23:56:47.577Z,4.30
2023-02-24T23:59:15.271Z,4.30
